Terminal Aerodrome Forecast
Issued by NWS

Home | Current Version | Previous Version | Text Only | Print | Product List | Glossary On
Versions: 1 2 3 4 5 6 7 8 9 10 11 12
263
FTUS42 KGSP 240526
TAFAND
TAF
KAND 240526Z 2406/2506 08003KT P6SM BKN050
     FM240900 08003KT P6SM BKN025
     FM241700 15003KT P6SM BKN045
     FM250000 12003KT P6SM SCT050=

USA.gov is the U.S. government's official web portal to all federal, state and local government web resources and services.